Thunder radar more information blitzortung!


Löydät sääaseman tiedot myös:

European Weather Network

Finland Weather Exchange

Weather Underground

AWEKAS



Weather Underground säähistoriasivu

Päivittäin yhteenveto Maaliskuu 22, 2017 Yksiköt:  Englantilaiset    Metriset   Molemmat
« Edellinen Päivä
Seuraava Päivä »
Päivittäin Viikoittain Kuukausittain Vuosittain Mukautettu
  Korkea: Matala: Keskiarvo:
Lämpötila: TemperatureC °F 0.8 °F 2.7 °F
Kastepiste: DewpointC °F -3.2 °F -0.2 °F
Kosteus: Humidity % 56 % 82 %
Tuulen nopeus: WindSpeedKMH mph 1.6 mph 6.9 mph
Tuulenpuuska: WindSpeedGustKMH mph - -
Tuuli:- - SSW
Ilmanpaine: PressurehPa in 988.7 in -
Sade: 0.0 in    
Historical Graphs
 
 
Taulukkotiedot Maaliskuu 22, 2017
Aika Lämpötila Kastepiste Ilmanpaine Tuuli Tuulen nopeus Tuulenpuuska Kosteus Sademäärä (tunneittain)
TemperatureC °F DewpointC °F PressurehPa in Calm     Humidity % HourlyPrecipMM in
00:00 1.6 °F 1.0 °F 988.7 in South 1.6 mph 8.0 mph 96 % 0.0 in
00:30 1.9 °F 1.4 °F 988.7 in South 1.6 mph 11.3 mph 96 % 0.0 in
00:45 2.1 °F 1.5 °F 988.7 in SSW 6.4 mph 16.1 mph 96 % 0.0 in
01:00 1.8 °F 1.3 °F 988.7 in SSW 6.4 mph 12.9 mph 96 % 0.0 in
01:15 1.7 °F 1.0 °F 988.7 in SSW 4.8 mph 14.5 mph 95 % 0.0 in
01:30 1.4 °F 0.7 °F 988.7 in South 4.8 mph 11.3 mph 95 % 0.0 in
01:45 1.0 °F 0.3 °F 988.7 in South 4.8 mph 11.3 mph 95 % 0.0 in
02:00 0.8 °F 0.2 °F 988.7 in South 3.2 mph 9.7 mph 96 % 0.0 in
02:15 0.8 °F 0.2 °F 988.7 in South 1.6 mph 8.0 mph 96 % 0.0 in
02:30 1.1 °F 0.5 °F 988.7 in SSW 4.8 mph 14.5 mph 96 % 0.0 in
02:45 1.3 °F 0.9 °F 989.1 in SSW 6.4 mph 12.9 mph 97 % 0.0 in
03:00 1.3 °F 0.8 °F 989.1 in SSW 4.8 mph 16.1 mph 96 % 0.0 in
03:15 1.5 °F 1.1 °F 988.7 in SSW 4.8 mph 12.9 mph 97 % 0.0 in
03:30 1.6 °F 1.0 °F 988.7 in SSW 8.0 mph 16.1 mph 96 % 0.0 in
03:45 1.6 °F 1.0 °F 989.1 in SSW 8.0 mph 17.7 mph 96 % 0.0 in
04:00 1.6 °F 1.0 °F 989.1 in SSW 6.4 mph 20.9 mph 96 % 0.0 in
04:15 1.6 °F 1.0 °F 989.1 in SSW 6.4 mph 14.5 mph 96 % 0.0 in
04:30 1.4 °F 0.9 °F 989.1 in SSW 6.4 mph 16.1 mph 96 % 0.0 in
04:45 1.3 °F 0.8 °F 989.1 in SSW 4.8 mph 11.3 mph 96 % 0.0 in
05:00 1.2 °F 0.7 °F 989.1 in SSW 4.8 mph 11.3 mph 96 % 0.0 in
05:15 1.2 °F 0.7 °F 989.1 in South 1.6 mph 11.3 mph 96 % 0.0 in
05:30 1.3 °F 0.8 °F 989.1 in South 3.2 mph 11.3 mph 96 % 0.0 in
05:45 1.6 °F 1.0 °F 989.1 in SSW 3.2 mph 12.9 mph 96 % 0.0 in
06:00 1.7 °F 1.3 °F 989.1 in South 6.4 mph 16.1 mph 97 % 0.0 in
06:15 1.8 °F 1.2 °F 989.4 in SSW 6.4 mph 11.3 mph 96 % 0.0 in
06:30 1.8 °F 1.2 °F 989.4 in SSW 8.0 mph 16.1 mph 96 % 0.0 in
06:45 1.7 °F 1.2 °F 989.7 in SSW 8.0 mph 22.5 mph 96 % 0.0 in
07:00 1.7 °F 1.2 °F 989.7 in SSW 6.4 mph 16.1 mph 96 % 0.0 in
07:15 1.7 °F 1.1 °F 990.1 in SSW 4.8 mph 12.9 mph 96 % 0.0 in
07:30 1.7 °F 1.1 °F 990.1 in SSW 6.4 mph 12.9 mph 96 % 0.0 in
07:45 1.7 °F 1.2 °F 990.1 in SSW 6.4 mph 14.5 mph 96 % 0.0 in
08:00 1.8 °F 1.2 °F 990.4 in SSW 9.7 mph 22.5 mph 96 % 0.0 in
08:15 1.8 °F 1.2 °F 990.7 in SSW 8.0 mph 24.1 mph 96 % 0.0 in
08:30 1.8 °F 1.2 °F 990.7 in SSW 8.0 mph 19.3 mph 96 % 0.0 in
08:45 1.8 °F 1.1 °F 991.1 in SSW 6.4 mph 19.3 mph 95 % 0.0 in
09:00 1.8 °F 1.1 °F 991.1 in SSW 8.0 mph 19.3 mph 95 % 0.0 in
09:15 1.9 °F 1.1 °F 991.4 in SSW 8.0 mph 16.1 mph 94 % 0.0 in
09:30 2.0 °F 1.1 °F 991.8 in SSW 8.0 mph 19.3 mph 94 % 0.0 in
09:45 2.1 °F 1.2 °F 991.8 in SSW 6.4 mph 20.9 mph 94 % 0.0 in
10:00 2.3 °F 1.3 °F 992.1 in SSW 6.4 mph 14.5 mph 93 % 0.0 in
10:15 2.5 °F 1.2 °F 992.1 in SSW 8.0 mph 19.3 mph 91 % 0.0 in
10:30 2.9 °F 1.4 °F 992.4 in SSW 8.0 mph 27.4 mph 90 % 0.0 in
10:45 3.1 °F 1.3 °F 992.8 in SSW 11.3 mph 22.5 mph 88 % 0.0 in
11:00 3.1 °F 1.1 °F 993.1 in SSW 9.7 mph 29.0 mph 87 % 0.0 in
11:15 3.4 °F 1.3 °F 993.1 in SSW 8.0 mph 22.5 mph 86 % 0.0 in
11:30 3.9 °F 0.9 °F 993.5 in SSW 9.7 mph 25.7 mph 81 % 0.0 in
11:45 3.9 °F 1.3 °F 993.5 in SSW 9.7 mph 22.5 mph 83 % 0.0 in
12:00 4.2 °F 1.0 °F 993.8 in SW 8.0 mph 17.7 mph 80 % 0.0 in
12:15 4.4 °F 1.1 °F 994.1 in SW 8.0 mph 17.7 mph 79 % 0.0 in
12:30 4.7 °F 0.5 °F 994.1 in SSW 11.3 mph 25.7 mph 74 % 0.0 in
12:45 4.7 °F 0.4 °F 994.5 in SSW 9.7 mph 22.5 mph 74 % 0.0 in
13:00 4.8 °F 0.4 °F 994.8 in SW 8.0 mph 25.7 mph 73 % 0.0 in
13:15 5.3 °F 0.4 °F 994.8 in SSW 9.7 mph 20.9 mph 71 % 0.0 in
13:30 5.3 °F 0.0 °F 995.1 in SSW 8.0 mph 24.1 mph 69 % 0.0 in
13:45 4.8 °F -1.3 °F 995.5 in SSW 17.7 mph 41.8 mph 65 % 0.0 in
14:00 5.2 °F -0.9 °F 995.8 in SW 8.0 mph 20.9 mph 65 % 0.0 in
14:15 5.4 °F -1.3 °F 995.8 in SSW 8.0 mph 24.1 mph 62 % 0.0 in
14:30 5.4 °F -1.8 °F 996.2 in SSW 9.7 mph 25.7 mph 60 % 0.0 in
14:45 5.5 °F -1.9 °F 996.2 in SSW 9.7 mph 30.6 mph 59 % 0.0 in
15:00 5.4 °F -2.4 °F 996.5 in SSW 9.7 mph 29.0 mph 57 % 0.0 in
15:15 5.4 °F -2.2 °F 996.8 in SSW 9.7 mph 25.7 mph 58 % 0.0 in
15:30 5.4 °F -2.6 °F 996.8 in SW 8.0 mph 24.1 mph 56 % 0.0 in
15:45 5.6 °F -2.5 °F 997.2 in SSW 8.0 mph 30.6 mph 56 % 0.0 in
16:00 5.6 °F -2.3 °F 997.2 in SSW 8.0 mph 24.1 mph 57 % 0.0 in
16:15 5.2 °F -2.6 °F 997.2 in SSW 9.7 mph 22.5 mph 57 % 0.0 in
16:30 4.9 °F -3.1 °F 997.5 in SSW 11.3 mph 29.0 mph 56 % 0.0 in
16:45 4.6 °F -3.2 °F 997.9 in SSW 14.5 mph 30.6 mph 57 % 0.0 in
17:00 4.4 °F -2.7 °F 997.9 in SSW 14.5 mph 30.6 mph 60 % 0.0 in
17:15 4.3 °F -2.4 °F 997.9 in SSW 11.3 mph 27.4 mph 62 % 0.0 in
17:30 4.2 °F -2.2 °F 997.9 in SSW 9.7 mph 19.3 mph 63 % 0.0 in
17:45 3.9 °F -2.0 °F 998.2 in SSW 9.7 mph 22.5 mph 65 % 0.0 in
18:00 3.6 °F -2.0 °F 998.5 in SSW 6.4 mph 17.7 mph 67 % 0.0 in
18:15 3.3 °F -1.8 °F 998.5 in SSW 6.4 mph 14.5 mph 69 % 0.0 in
18:30 3.1 °F -1.8 °F 998.9 in SSW 6.4 mph 16.1 mph 70 % 0.0 in
18:45 3.1 °F -1.5 °F 998.9 in SW 6.4 mph 11.3 mph 72 % 0.0 in
19:00 3.1 °F -1.3 °F 998.9 in SSW 8.0 mph 19.3 mph 73 % 0.0 in
19:15 2.8 °F -1.2 °F 999.2 in SSW 8.0 mph 17.7 mph 75 % 0.0 in
19:30 2.6 °F -1.3 °F 999.5 in SSW 6.4 mph 16.1 mph 76 % 0.0 in
19:45 2.4 °F -1.2 °F 999.5 in SSW 6.4 mph 14.5 mph 77 % 0.0 in
20:00 2.2 °F -1.3 °F 999.9 in SSW 6.4 mph 14.5 mph 78 % 0.0 in
20:15 2.0 °F -1.3 °F 999.9 in SSW 6.4 mph 16.1 mph 79 % 0.0 in
20:30 1.8 °F -1.3 °F 999.9 in SSW 6.4 mph 17.7 mph 80 % 0.0 in
20:45 1.7 °F -1.2 °F 1000.2 in SSW 4.8 mph 16.1 mph 81 % 0.0 in
21:00 1.6 °F -1.3 °F 1000.2 in SSW 4.8 mph 14.5 mph 81 % 0.0 in
21:15 1.7 °F -1.1 °F 1000.2 in SW 4.8 mph 12.9 mph 82 % 0.0 in
21:30 1.8 °F -1.0 °F 1000.2 in SSW 4.8 mph 20.9 mph 82 % 0.0 in
21:45 2.1 °F -1.0 °F 1000.6 in SSW 4.8 mph 14.5 mph 80 % 0.0 in
22:00 1.9 °F -1.0 °F 1000.9 in SSW 6.4 mph 20.9 mph 81 % 0.0 in
22:15 1.7 °F -1.1 °F 1000.9 in SSW 3.2 mph 9.7 mph 82 % 0.0 in
22:30 1.6 °F -1.1 °F 1001.2 in SSW 3.2 mph 11.3 mph 82 % 0.0 in
22:45 1.7 °F -1.2 °F 1001.2 in SSW 3.2 mph 9.7 mph 81 % 0.0 in
23:00 1.6 °F -1.3 °F 1001.6 in West 3.2 mph 8.0 mph 81 % 0.0 in
23:15 1.6 °F -1.3 °F 1001.6 in SSW 4.8 mph 11.3 mph 81 % 0.0 in
23:30 1.6 °F -1.4 °F 1001.9 in SW 3.2 mph 12.9 mph 81 % 0.0 in
23:45 1.7 °F -1.2 °F 1001.9 in SW 4.8 mph 19.3 mph 81 % 0.0 in
Esan sääasema
Terveisin Weather Underground - 3 mb

Alkuperäinen skripti  Jim McMurry - jmcmurry@mwt.net Sovitettu myös templatelle  Wim van der Kuil - Leuven-Template.eu

Laitteet joita käytämme:

Sääasema
Davis VP2

Sääasemaohjelma
Cumulus

Sääaseman tietokone
Asus EeePC

Palveluntarjoaja
Suncomet

Davis VP2

Cumulus

Asus EeePC

Suncomet